Time;durP1;ratioP1;P1;durP2;ratioP2;P2;SDS_P1;SDS_P2;PMS_P1;PMS_P2;Temp;Humidity;BMP_temperature;BMP_pressure;BME280_temperature;BME280_humidity;BME280_pressure;Samples;Min_cycle;Max_cycle;Signal;HPM_P1;HPM_P2
2022/10/30 00:01:28;;;;;;;10.73;5.30;;;;;;;14.51;100.00;101397.25;4957018;28;20455;-74
2022/10/30 00:03:55;;;;;;;11.17;5.93;;;;;;;14.48;100.00;101403.31;4959986;28;20447;-74
2022/10/30 00:06:21;;;;;;;14.20;6.67;;;;;;;14.45;100.00;101402.00;4957600;29;20454;-75
2022/10/30 00:08:48;;;;;;;13.23;6.53;;;;;;;14.43;100.00;101400.69;4974297;23;20940;-80
2022/10/30 00:11:16;;;;;;;12.90;6.33;;;;;;;14.38;100.00;101399.69;5001582;28;20488;-80
2022/10/30 00:13:43;;;;;;;13.67;6.93;;;;;;;14.32;100.00;101394.66;4989536;28;20527;-79
2022/10/30 00:16:10;;;;;;;14.90;6.73;;;;;;;14.28;100.00;101394.47;5001898;28;20449;-78
2022/10/30 00:18:37;;;;;;;12.27;7.20;;;;;;;14.27;100.00;101392.84;5000459;28;20468;-78
2022/10/30 00:21:08;;;;;;;14.03;6.27;;;;;;;14.26;100.00;101396.69;5002129;28;20489;-78
2022/10/30 00:23:35;;;;;;;16.13;7.17;;;;;;;14.24;100.00;101392.66;4986967;28;20508;-78
2022/10/30 00:26:04;;;;;;;20.83;9.00;;;;;;;14.24;100.00;101387.19;4982684;28;20442;-78
2022/10/30 00:28:32;;;;;;;13.33;6.90;;;;;;;14.20;100.00;101392.44;4997081;28;20496;-79
2022/10/30 00:30:59;;;;;;;17.43;7.40;;;;;;;14.15;100.00;101389.84;5006132;28;20496;-78
2022/10/30 00:33:26;;;;;;;12.90;7.27;;;;;;;14.09;100.00;101385.63;4997837;28;20472;-79
2022/10/30 00:35:52;;;;;;;17.40;8.70;;;;;;;14.05;100.00;101382.69;5004592;28;20456;-79
2022/10/30 00:38:19;;;;;;;14.93;7.60;;;;;;;14.03;100.00;101382.22;4993497;28;20466;-79
2022/10/30 00:40:45;;;;;;;14.03;7.73;;;;;;;14.05;100.00;101384.63;4998671;28;20464;-79
2022/10/30 00:43:27;;;;;;;16.60;7.17;;;;;;;14.06;100.00;101380.78;4995247;28;21002;-79
2022/10/30 00:45:58;;;;;;;14.27;7.30;;;;;;;14.07;100.00;101375.00;5004948;28;20433;-79
2022/10/30 00:48:26;;;;;;;12.93;6.03;;;;;;;14.05;100.00;101377.25;5003259;28;20464;-79
2022/10/30 00:50:53;;;;;;;14.80;7.07;;;;;;;14.05;100.00;101373.72;5004733;28;20488;-79
2022/10/30 00:53:21;;;;;;;12.77;7.80;;;;;;;14.00;100.00;101363.72;4994614;28;20470;-79
2022/10/30 00:55:52;;;;;;;13.33;6.83;;;;;;;13.99;100.00;101358.56;4983937;28;20442;-79
2022/10/30 00:58:25;;;;;;;17.00;7.00;;;;;;;13.94;100.00;101359.50;4996482;28;20456;-79
2022/10/30 01:00:56;;;;;;;14.63;6.80;;;;;;;13.95;100.00;101363.03;5001790;28;20464;-79
2022/10/30 01:03:26;;;;;;;11.53;6.47;;;;;;;13.97;100.00;101360.81;5001351;28;20574;-79
2022/10/30 01:05:56;;;;;;;15.03;7.97;;;;;;;13.98;100.00;101359.69;5003180;28;20460;-79
2022/10/30 01:08:23;;;;;;;18.37;8.17;;;;;;;13.97;100.00;101355.34;4982993;28;20834;-78
2022/10/30 01:10:50;;;;;;;13.40;7.30;;;;;;;13.93;100.00;101343.47;4982491;28;20438;-78
2022/10/30 01:13:20;;;;;;;19.60;7.67;;;;;;;13.86;100.00;101350.13;4982236;28;20453;-79
2022/10/30 01:16:04;;;;;;;13.53;7.53;;;;;;;13.79;100.00;101343.47;4984890;28;20976;-79
2022/10/30 01:18:42;;;;;;;13.30;7.40;;;;;;;13.76;100.00;101346.78;4983131;28;20449;-79
2022/10/30 01:21:26;;;;;;;12.87;6.93;;;;;;;13.76;100.00;101352.25;4999865;28;20967;-79
2022/10/30 01:24:05;;;;;;;12.57;7.63;;;;;;;13.70;100.00;101350.75;5000083;28;20781;-79
2022/10/30 01:26:40;;;;;;;15.30;7.30;;;;;;;13.69;100.00;101347.22;4983352;28;20477;-78
2022/10/30 01:29:26;;;;;;;15.70;8.33;;;;;;;13.69;100.00;101349.13;4994280;28;20489;-79
2022/10/30 01:32:12;;;;;;;14.33;8.03;;;;;;;13.59;100.00;101350.97;5000315;28;20504;-78
2022/10/30 01:34:46;;;;;;;15.13;7.90;;;;;;;13.58;100.00;101343.06;4997448;28;20460;-78
2022/10/30 01:37:20;;;;;;;16.63;7.40;;;;;;;13.51;100.00;101346.22;4980640;28;20452;-78
2022/10/30 01:39:47;;;;;;;16.90;7.70;;;;;;;13.50;100.00;101338.31;4998830;28;20568;-78
2022/10/30 01:42:43;;;;;;;15.33;7.73;;;;;;;13.49;100.00;101334.81;5000191;28;20448;-79
2022/10/30 01:45:15;;;;;;;17.10;7.70;;;;;;;13.48;100.00;101337.84;5001422;28;20437;-80
2022/10/30 01:47:50;;;;;;;22.83;7.87;;;;;;;13.44;100.00;101323.22;4999569;28;20448;-79
2022/10/30 01:50:33;;;;;;;16.80;7.57;;;;;;;13.40;100.00;101324.94;5000796;28;20478;-79
2022/10/30 01:53:06;;;;;;;23.83;6.77;;;;;;;13.42;100.00;101317.28;5001795;28;20527;-79
2022/10/30 01:55:37;;;;;;;11.23;6.40;;;;;;;13.41;100.00;101319.16;4998873;28;20501;-79
2022/10/30 01:58:15;;;;;;;17.00;7.90;;;;;;;13.38;100.00;101323.31;4983391;28;20460;-80
2022/10/30 02:00:45;;;;;;;17.00;8.57;;;;;;;13.39;100.00;101315.97;4988059;28;20487;-78
2022/10/30 02:03:14;;;;;;;17.17;8.13;;;;;;;13.38;100.00;101319.78;5002723;28;20449;-78
2022/10/30 02:05:43;;;;;;;18.20;8.57;;;;;;;13.40;100.00;101325.72;4998119;28;20466;-79
2022/10/30 02:08:10;;;;;;;19.07;8.57;;;;;;;13.34;100.00;101311.41;4982742;28;20468;-78
2022/10/30 02:10:38;;;;;;;18.80;9.07;;;;;;;13.30;100.00;101315.06;4983611;28;20485;-79
2022/10/30 02:13:05;;;;;;;16.23;7.40;;;;;;;13.18;100.00;101318.22;5001356;28;20492;-78
2022/10/30 02:15:32;;;;;;;13.63;7.47;;;;;;;13.18;100.00;101315.50;4998152;28;20815;-79
2022/10/30 02:17:58;;;;;;;18.13;7.40;;;;;;;13.14;100.00;101314.47;4983071;28;20456;-78
2022/10/30 02:20:26;;;;;;;14.83;8.43;;;;;;;13.06;100.00;101317.91;4981516;28;20473;-79
2022/10/30 02:22:53;;;;;;;19.60;8.30;;;;;;;13.06;100.00;101312.47;4997617;28;20461;-78
2022/10/30 02:25:20;;;;;;;16.10;7.30;;;;;;;13.00;100.00;101309.03;4998984;28;20525;-79
2022/10/30 02:27:46;;;;;;;13.20;8.60;;;;;;;12.97;100.00;101312.38;5000559;28;20449;-79
2022/10/30 02:30:13;;;;;;;16.37;7.80;;;;;;;13.01;100.00;101307.09;4996819;28;20485;-78
2022/10/30 02:32:40;;;;;;;12.90;7.87;;;;;;;12.98;100.00;101305.81;4985067;28;20490;-79
2022/10/30 02:35:07;;;;;;;14.00;7.43;;;;;;;12.94;100.00;101306.72;4980518;28;20818;-78
2022/10/30 02:37:35;;;;;;;16.10;7.70;;;;;;;12.93;100.00;101299.66;4980979;28;20458;-78
2022/10/30 02:40:02;;;;;;;17.23;8.50;;;;;;;12.94;100.00;101307.50;4989140;28;20516;-78
2022/10/30 02:42:28;;;;;;;16.33;8.20;;;;;;;12.90;100.00;101300.25;4992742;28;20494;-78
2022/10/30 02:44:55;;;;;;;16.53;8.37;;;;;;;12.92;100.00;101306.19;4980729;28;20445;-78
2022/10/30 02:47:21;;;;;;;15.37;7.40;;;;;;;12.91;100.00;101293.69;4997274;28;20465;-78
2022/10/30 02:49:48;;;;;;;13.37;7.60;;;;;;;12.88;100.00;101292.38;4999649;28;20523;-79
2022/10/30 02:52:14;;;;;;;14.43;7.53;;;;;;;12.80;100.00;101293.88;4996117;28;20489;-78
2022/10/30 02:54:42;;;;;;;13.27;7.13;;;;;;;12.78;100.00;101304.25;4979960;28;20442;-78
2022/10/30 02:57:09;;;;;;;16.07;7.67;;;;;;;12.76;100.00;101295.59;4980267;28;21052;-78
2022/10/30 02:59:35;;;;;;;16.13;9.27;;;;;;;12.77;100.00;101301.81;4997423;28;20839;-78
2022/10/30 03:02:02;;;;;;;16.73;7.30;;;;;;;12.79;100.00;101308.59;4996360;28;20975;-78
2022/10/30 03:04:28;;;;;;;17.20;8.60;;;;;;;12.75;100.00;101315.72;4997517;28;20845;-78
2022/10/30 03:06:55;;;;;;;18.77;8.17;;;;;;;12.74;100.00;101314.09;4996086;28;20488;-80
2022/10/30 03:09:21;;;;;;;33.37;9.10;;;;;;;12.78;100.00;101309.69;4979784;28;21028;-78
2022/10/30 03:11:49;;;;;;;17.50;9.50;;;;;;;12.79;100.00;101308.59;4977463;28;20563;-79
2022/10/30 03:14:15;;;;;;;16.27;7.43;;;;;;;12.80;100.00;101312.13;4992822;28;20858;-78
2022/10/30 03:16:42;;;;;;;16.00;7.60;;;;;;;12.78;100.00;101311.59;4995970;28;20471;-78
2022/10/30 03:19:08;;;;;;;17.90;7.80;;;;;;;12.77;100.00;101310.78;4986144;28;20509;-78
2022/10/30 03:21:35;;;;;;;13.60;7.60;;;;;;;12.77;100.00;101302.63;4984062;28;20468;-78
2022/10/30 03:24:01;;;;;;;16.20;7.87;;;;;;;12.76;100.00;101306.47;4997270;28;20440;-78
2022/10/30 03:26:28;;;;;;;12.13;7.77;;;;;;;12.75;100.00;101304.03;4996030;28;20473;-78
2022/10/30 03:28:56;;;;;;;16.93;7.30;;;;;;;12.74;100.00;101305.13;4992632;28;20513;-78
2022/10/30 03:31:22;;;;;;;14.60;7.90;;;;;;;12.74;100.00;101294.25;4977940;28;20445;-78
2022/10/30 03:33:49;;;;;;;15.50;8.27;;;;;;;12.74;100.00;101286.09;4982603;28;20827;-78
2022/10/30 03:36:15;;;;;;;14.23;7.30;;;;;;;12.75;100.00;101280.38;4996613;28;20449;-78
2022/10/30 03:38:42;;;;;;;13.30;7.03;;;;;;;12.79;100.00;101270.53;4992967;28;20472;-79
2022/10/30 03:41:09;;;;;;;20.00;8.97;;;;;;;12.79;100.00;101258.81;4976808;28;20824;-78
2022/10/30 03:43:35;;;;;;;15.53;7.70;;;;;;;12.85;100.00;101260.38;4977621;28;20801;-79
2022/10/30 03:46:03;;;;;;;18.67;7.70;;;;;;;12.93;100.00;101256.97;4980514;28;20461;-79
2022/10/30 03:48:30;;;;;;;13.03;7.40;;;;;;;13.02;100.00;101265.22;4981311;28;20454;-79
2022/10/30 03:50:58;;;;;;;16.47;7.60;;;;;;;13.06;100.00;101272.50;4982040;28;20453;-79
2022/10/30 03:53:27;;;;;;;12.33;6.77;;;;;;;13.14;100.00;101266.31;4983506;28;20485;-79
2022/10/30 03:55:57;;;;;;;40.67;9.67;;;;;;;13.24;100.00;101270.81;4999329;28;20455;-80
2022/10/30 03:58:24;;;;;;;16.17;7.60;;;;;;;13.30;100.00;101263.34;4981216;28;20446;-80
2022/10/30 04:01:01;;;;;;;12.23;7.03;;;;;;;13.38;100.00;101268.91;4983284;28;20882;-80
2022/10/30 04:03:29;;;;;;;19.07;9.07;;;;;;;13.45;100.00;101273.13;4981473;28;20465;-78
2022/10/30 04:05:55;;;;;;;17.90;7.83;;;;;;;13.50;100.00;101278.44;4994227;28;20472;-81
2022/10/30 04:08:22;;;;;;;12.40;7.20;;;;;;;13.53;100.00;101280.56;5000362;28;20457;-78
2022/10/30 04:10:49;;;;;;;24.93;7.60;;;;;;;13.55;100.00;101287.34;4986526;28;20463;-78
2022/10/30 04:13:17;;;;;;;17.13;8.57;;;;;;;13.60;100.00;101303.56;4981423;28;20494;-78
2022/10/30 04:15:44;;;;;;;15.93;7.33;;;;;;;13.61;100.00;101288.84;4995031;28;20956;-78
2022/10/30 04:18:11;;;;;;;11.80;6.57;;;;;;;13.63;100.00;101299.41;5000500;28;20452;-78
2022/10/30 04:20:40;;;;;;;15.67;7.50;;;;;;;13.62;100.00;101300.53;4988555;28;20532;-78
2022/10/30 04:23:08;;;;;;;17.10;8.10;;;;;;;13.58;100.00;101310.41;4999063;28;20838;-78
2022/10/30 04:25:36;;;;;;;18.20;8.50;;;;;;;13.61;100.00;101329.66;4984156;28;20472;-78
2022/10/30 04:28:03;;;;;;;20.80;8.93;;;;;;;13.60;100.00;101314.44;4981375;28;20460;-78
2022/10/30 04:30:32;;;;;;;18.73;8.57;;;;;;;13.63;100.00;101311.13;4994663;28;20492;-78
2022/10/30 04:32:59;;;;;;;18.80;8.30;;;;;;;13.62;100.00;101309.50;5001588;28;20551;-78
2022/10/30 04:35:28;;;;;;;19.93;8.43;;;;;;;13.60;100.00;101335.44;4985577;28;20462;-78
2022/10/30 04:37:57;;;;;;;13.27;7.10;;;;;;;13.63;100.00;101318.47;4982592;28;20458;-78
2022/10/30 04:40:25;;;;;;;18.93;8.30;;;;;;;13.58;100.00;101304.97;4984768;28;20490;-78
2022/10/30 04:42:52;;;;;;;16.03;8.03;;;;;;;13.57;100.00;101304.16;4981509;28;20449;-78
2022/10/30 04:45:18;;;;;;;16.37;7.80;;;;;;;13.56;100.00;101304.47;4993644;28;20473;-79
2022/10/30 04:47:45;;;;;;;14.83;7.27;;;;;;;13.50;100.00;101300.22;5000529;28;20937;-78
2022/10/30 04:50:13;;;;;;;15.97;7.87;;;;;;;13.54;100.00;101293.06;4991397;28;20513;-78
2022/10/30 04:52:40;;;;;;;12.93;7.90;;;;;;;13.55;100.00;101290.06;4980737;28;20493;-78
2022/10/30 04:55:09;;;;;;;22.10;8.40;;;;;;;13.54;100.00;101291.16;4991594;28;20465;-77
2022/10/30 04:57:36;;;;;;;18.87;8.40;;;;;;;13.56;100.00;101279.97;5000494;28;20954;-78
2022/10/30 05:00:04;;;;;;;13.47;8.03;;;;;;;13.57;100.00;101287.03;5000137;28;20473;-78
2022/10/30 05:02:31;;;;;;;14.93;7.70;;;;;;;13.62;100.00;101290.44;5002097;28;20457;-78
2022/10/30 05:04:57;;;;;;;15.03;8.53;;;;;;;13.66;100.00;101298.81;4992697;28;20462;-78
2022/10/30 05:07:24;;;;;;;16.67;7.57;;;;;;;13.65;100.00;101290.97;4981371;28;20453;-78
2022/10/30 05:09:50;;;;;;;14.30;8.07;;;;;;;13.63;100.00;101283.91;4987918;28;20493;-78
2022/10/30 05:12:18;;;;;;;11.50;6.30;;;;;;;13.64;100.00;101282.00;5000945;28;20485;-78
2022/10/30 05:14:45;;;;;;;14.00;6.77;;;;;;;13.62;100.00;101273.31;5000382;28;20471;-78
2022/10/30 05:17:11;;;;;;;13.90;7.63;;;;;;;13.64;100.00;101265.66;4998216;28;20497;-78
2022/10/30 05:19:37;;;;;;;13.33;7.70;;;;;;;13.64;100.00;101254.75;4998713;28;20489;-78
2022/10/30 05:22:04;;;;;;;15.23;7.37;;;;;;;13.66;100.00;101236.19;4981577;28;20446;-78
2022/10/30 05:24:30;;;;;;;13.43;7.60;;;;;;;13.68;100.00;101250.31;4983085;28;20449;-78
2022/10/30 05:26:57;;;;;;;16.83;7.97;;;;;;;13.73;100.00;101249.41;5000871;28;20449;-78
2022/10/30 05:29:25;;;;;;;17.83;7.87;;;;;;;13.74;100.00;101251.81;4999005;28;20480;-78
2022/10/30 05:31:51;;;;;;;14.60;7.93;;;;;;;13.79;100.00;101256.34;4980820;28;20442;-78
2022/10/30 05:34:18;;;;;;;15.50;7.70;;;;;;;13.82;100.00;101272.88;4980003;28;20489;-78
2022/10/30 05:36:44;;;;;;;12.77;7.07;;;;;;;13.90;100.00;101287.69;4990684;28;20445;-78
2022/10/30 05:39:10;;;;;;;13.23;8.13;;;;;;;13.95;100.00;101286.78;4997295;28;20469;-78
2022/10/30 05:41:37;;;;;;;15.00;7.53;;;;;;;13.96;100.00;101256.50;4983421;28;20454;-78
2022/10/30 05:44:04;;;;;;;15.03;6.60;;;;;;;13.99;100.00;101246.88;4981500;28;20997;-78
2022/10/30 05:46:31;;;;;;;16.47;7.43;;;;;;;14.03;100.00;101269.69;4996078;28;20951;-78
2022/10/30 05:48:59;;;;;;;15.07;7.20;;;;;;;14.09;100.00;101274.72;4996063;28;20888;-78
2022/10/30 05:51:25;;;;;;;14.97;7.40;;;;;;;14.14;100.00;101250.09;4991413;28;20466;-78
2022/10/30 05:53:52;;;;;;;14.67;7.17;;;;;;;14.22;100.00;101253.19;4978473;28;20477;-78
2022/10/30 05:56:18;;;;;;;16.67;7.80;;;;;;;14.27;100.00;101272.94;4996619;28;20455;-78
2022/10/30 05:58:45;;;;;;;18.17;7.03;;;;;;;14.31;100.00;101256.78;4997353;28;20472;-79
2022/10/30 06:01:11;;;;;;;11.17;6.63;;;;;;;14.35;100.00;101258.59;4983465;28;20469;-79
2022/10/30 06:03:39;;;;;;;13.33;7.40;;;;;;;14.38;100.00;101257.94;4991981;28;20460;-78
2022/10/30 06:06:06;;;;;;;12.13;6.07;;;;;;;14.42;100.00;101268.22;4998253;28;20511;-78
2022/10/30 06:08:33;;;;;;;18.23;7.90;;;;;;;14.45;100.00;101245.81;4979175;28;20477;-78
2022/10/30 06:10:59;;;;;;;12.50;6.50;;;;;;;14.48;100.00;101253.38;4997916;28;20982;-78
2022/10/30 06:13:26;;;;;;;12.13;6.77;;;;;;;14.49;100.00;101241.38;4994983;28;20493;-78
2022/10/30 06:15:54;;;;;;;16.17;7.83;;;;;;;14.48;100.00;101234.31;4998660;28;20437;-78
2022/10/30 06:18:21;;;;;;;17.80;7.20;;;;;;;14.47;100.00;101222.56;5015837;23;20505;-69
2022/10/30 06:20:49;;;;;;;18.53;7.27;;;;;;;14.45;100.00;101224.00;4975170;28;20477;-69
2022/10/30 06:23:15;;;;;;;13.20;6.43;;;;;;;14.49;100.00;101219.56;4970361;28;20458;-69
2022/10/30 06:25:42;;;;;;;20.10;7.50;;;;;;;14.42;100.00;101224.63;4974509;28;20537;-70
2022/10/30 06:28:10;;;;;;;19.63;7.20;;;;;;;14.41;100.00;101229.28;4970753;28;20473;-70
2022/10/30 06:30:36;;;;;;;12.30;6.60;;;;;;;14.45;100.00;101234.91;4976590;28;20474;-68
2022/10/30 06:33:05;;;;;;;23.20;7.97;;;;;;;14.48;100.00;101229.69;4974266;28;20482;-68
2022/10/30 06:35:31;;;;;;;15.20;7.40;;;;;;;14.52;100.00;101224.38;4973625;28;20454;-68
2022/10/30 06:37:59;;;;;;;17.83;6.87;;;;;;;14.57;100.00;101237.91;4974398;28;20450;-69
2022/10/30 06:40:26;;;;;;;15.07;7.40;;;;;;;14.55;100.00;101245.59;4976287;28;20626;-70
2022/10/30 06:42:54;;;;;;;20.43;8.17;;;;;;;14.50;100.00;101246.50;4974275;28;20894;-70
2022/10/30 06:45:22;;;;;;;13.67;6.30;;;;;;;14.48;100.00;101256.09;4973558;28;20980;-69
2022/10/30 06:47:48;;;;;;;14.13;6.43;;;;;;;14.46;100.00;101266.50;4974288;28;20452;-69
2022/10/30 06:50:17;;;;;;;14.57;6.40;;;;;;;14.48;100.00;101272.47;4974903;28;21039;-69
2022/10/30 06:52:44;;;;;;;12.90;5.97;;;;;;;14.40;100.00;101271.28;4973921;28;20877;-70
2022/10/30 06:55:12;;;;;;;14.63;6.20;;;;;;;14.36;100.00;101273.81;4973590;28;20453;-70
2022/10/30 06:57:39;;;;;;;13.00;6.47;;;;;;;14.35;100.00;101276.84;4974258;28;20517;-71
2022/10/30 07:00:08;;;;;;;13.70;7.00;;;;;;;14.38;100.00;101284.41;4971366;28;20478;-69
2022/10/30 07:02:34;;;;;;;11.90;5.90;;;;;;;14.37;100.00;101282.78;4974237;28;20473;-71
2022/10/30 07:05:01;;;;;;;11.47;6.90;;;;;;;14.34;100.00;101281.50;4973348;28;20472;-71
2022/10/30 07:07:28;;;;;;;13.67;6.83;;;;;;;14.35;100.00;101280.38;4973473;28;20540;-69
2022/10/30 07:09:55;;;;;;;12.23;5.43;;;;;;;14.41;100.00;101282.97;4973555;28;20480;-68
2022/10/30 07:12:23;;;;;;;11.93;6.27;;;;;;;14.42;100.00;101277.22;4974078;28;20458;-71
2022/10/30 07:14:49;;;;;;;20.30;6.00;;;;;;;14.48;100.00;101272.47;4973388;28;20567;-71
2022/10/30 07:17:16;;;;;;;10.00;5.43;;;;;;;14.50;100.00;101276.50;4973866;28;20470;-71
2022/10/30 07:19:43;;;;;;;13.30;6.43;;;;;;;14.51;100.00;101288.22;4978499;28;20473;-71
2022/10/30 07:22:09;;;;;;;13.30;7.07;;;;;;;14.57;100.00;101298.69;4977818;28;20533;-71
2022/10/30 07:24:36;;;;;;;10.67;6.07;;;;;;;14.62;100.00;101293.13;4976844;28;20818;-70
2022/10/30 07:27:02;;;;;;;12.33;5.63;;;;;;;14.67;100.00;101286.72;4977968;28;20450;-74
2022/10/30 07:29:30;;;;;;;10.97;6.70;;;;;;;14.71;100.00;101293.16;4977293;28;20488;-72
2022/10/30 07:31:57;;;;;;;11.33;5.83;;;;;;;14.76;100.00;101300.41;4978426;28;20828;-70
2022/10/30 07:34:23;;;;;;;14.37;6.70;;;;;;;14.81;100.00;101300.28;4976309;28;20477;-70
2022/10/30 07:36:50;;;;;;;11.47;6.00;;;;;;;14.86;100.00;101292.75;4977541;28;20449;-71
2022/10/30 07:39:16;;;;;;;12.77;6.73;;;;;;;14.94;100.00;101313.03;4977086;28;20842;-71
2022/10/30 07:41:43;;;;;;;14.60;7.40;;;;;;;14.99;100.00;101301.19;4976571;28;20456;-71
2022/10/30 07:44:09;;;;;;;16.00;7.13;;;;;;;15.09;100.00;101306.38;4977702;28;20476;-72
2022/10/30 07:46:37;;;;;;;13.93;6.30;;;;;;;15.13;100.00;101299.97;4975591;28;20453;-69
2022/10/30 07:49:04;;;;;;;18.27;6.93;;;;;;;15.21;100.00;101301.13;4976573;28;20484;-70
2022/10/30 07:51:30;;;;;;;10.67;6.40;;;;;;;15.29;100.00;101311.28;4976876;28;20450;-70
2022/10/30 07:53:57;;;;;;;11.00;5.73;;;;;;;15.36;100.00;101310.81;4977024;28;20520;-70
2022/10/30 07:56:23;;;;;;;11.77;5.53;;;;;;;15.40;100.00;101303.59;4976383;28;20464;-70
2022/10/30 07:58:50;;;;;;;17.47;6.97;;;;;;;15.45;100.00;101314.41;4978274;28;20483;-70
2022/10/30 08:01:16;;;;;;;15.23;7.23;;;;;;;15.53;100.00;101323.72;4975871;28;20450;-69
2022/10/30 08:03:44;;;;;;;15.77;6.47;;;;;;;15.55;100.00;101321.50;4976683;28;20468;-69
2022/10/30 08:06:11;;;;;;;15.33;6.17;;;;;;;15.57;100.00;101330.97;4976504;28;20454;-70
2022/10/30 08:08:37;;;;;;;20.33;6.70;;;;;;;15.58;100.00;101329.88;4976658;28;20813;-71
2022/10/30 08:11:04;;;;;;;12.00;6.00;;;;;;;15.65;100.00;101321.25;4976226;28;20477;-69
2022/10/30 08:13:31;;;;;;;9.20;5.33;;;;;;;15.67;100.00;101301.78;4977595;28;20484;-71
2022/10/30 08:15:57;;;;;;;12.60;5.70;;;;;;;15.67;100.00;101310.81;4976863;28;20456;-70
2022/10/30 08:18:24;;;;;;;21.30;6.30;;;;;;;15.72;100.00;101312.59;4975783;28;20465;-69
2022/10/30 08:20:52;;;;;;;12.37;5.90;;;;;;;15.82;100.00;101324.00;4976354;28;21008;-70
2022/10/30 08:23:20;;;;;;;11.77;6.47;;;;;;;15.93;100.00;101326.44;4976132;28;20470;-69
2022/10/30 08:25:47;;;;;;;11.13;6.43;;;;;;;16.03;100.00;101315.22;4976719;28;20450;-69
2022/10/30 08:28:14;;;;;;;13.43;5.63;;;;;;;16.09;100.00;101308.47;4975630;28;20854;-69
2022/10/30 08:30:40;;;;;;;10.40;5.67;;;;;;;16.21;100.00;101327.78;4975396;28;20481;-71
2022/10/30 08:33:12;;;;;;;12.20;5.43;;;;;;;16.31;100.00;101326.66;4976791;28;20808;-70
2022/10/30 08:35:38;;;;;;;14.43;5.87;;;;;;;16.34;100.00;101324.09;4977340;28;20466;-71
2022/10/30 08:38:06;;;;;;;9.27;5.20;;;;;;;16.47;100.00;101316.00;4976476;28;20954;-70
2022/10/30 08:40:33;;;;;;;13.13;4.87;;;;;;;16.56;100.00;101319.56;4975857;28;21004;-70
2022/10/30 08:42:59;;;;;;;12.30;5.40;;;;;;;16.62;100.00;101321.81;4975992;28;20945;-71
2022/10/30 08:45:26;;;;;;;8.67;4.80;;;;;;;16.67;100.00;101314.56;4977570;28;20504;-73
2022/10/30 08:47:59;;;;;;;9.03;4.70;;;;;;;16.72;100.00;101317.13;4976284;28;20968;-69
2022/10/30 08:50:26;;;;;;;11.57;5.50;;;;;;;16.80;100.00;101328.09;4975930;28;21031;-72
2022/10/30 08:52:53;;;;;;;16.27;5.93;;;;;;;16.86;100.00;101320.50;4976217;28;20454;-72
2022/10/30 08:55:21;;;;;;;13.33;5.43;;;;;;;17.00;100.00;101314.81;4973990;28;20486;-72
2022/10/30 08:57:48;;;;;;;12.23;6.07;;;;;;;17.17;98.65;101313.97;4956839;28;20834;-71
2022/10/30 09:00:14;;;;;;;11.10;4.53;;;;;;;17.26;97.00;101315.53;4972112;28;20497;-71
2022/10/30 09:02:41;;;;;;;12.70;5.70;;;;;;;17.29;95.32;101327.78;4975973;28;20534;-71
2022/10/30 09:05:08;;;;;;;10.87;3.97;;;;;;;17.30;95.59;101319.22;4974749;28;20830;-71
2022/10/30 09:07:35;;;;;;;17.37;5.80;;;;;;;17.30;94.17;101311.03;4976843;28;20458;-71
2022/10/30 09:10:02;;;;;;;12.40;4.43;;;;;;;17.30;94.39;101313.75;4975906;28;20520;-72
2022/10/30 09:12:30;;;;;;;11.47;4.90;;;;;;;17.22;94.31;101317.34;4975142;28;20454;-72
2022/10/30 09:14:56;;;;;;;12.57;5.40;;;;;;;17.18;95.02;101313.66;4975644;28;20478;-75
2022/10/30 09:17:23;;;;;;;13.83;4.60;;;;;;;17.18;95.68;101319.16;4977731;28;20470;-71
2022/10/30 09:19:49;;;;;;;12.37;4.30;;;;;;;17.17;95.81;101305.75;4976130;28;20473;-71
2022/10/30 09:22:16;;;;;;;14.43;4.50;;;;;;;17.22;95.38;101303.66;4974226;28;20458;-72
2022/10/30 09:24:43;;;;;;;11.80;5.30;;;;;;;17.30;95.29;101299.25;4975562;28;20964;-71
2022/10/30 09:27:09;;;;;;;9.00;4.30;;;;;;;17.36;93.23;101298.78;4969654;28;20857;-71
2022/10/30 09:29:37;;;;;;;10.53;4.77;;;;;;;17.46;93.19;101297.59;4974950;28;20462;-73
2022/10/30 09:32:07;;;;;;;11.27;4.10;;;;;;;17.49;92.87;101302.41;4972468;28;20477;-74
2022/10/30 09:34:34;;;;;;;15.47;4.53;;;;;;;17.55;92.92;101295.59;4972030;28;20532;-73
2022/10/30 09:37:00;;;;;;;9.00;4.30;;;;;;;17.57;92.63;101289.78;4974417;28;20466;-71
2022/10/30 09:39:28;;;;;;;10.93;4.37;;;;;;;17.69;90.54;101298.09;4980160;28;20473;-76
2022/10/30 09:42:11;;;;;;;9.53;4.50;;;;;;;17.75;90.25;101296.81;4975782;28;20468;-70
2022/10/30 09:44:52;;;;;;;7.97;3.97;;;;;;;17.92;90.04;101295.09;4974967;28;20827;-71
2022/10/30 09:47:26;;;;;;;10.63;4.20;;;;;;;17.98;88.71;101310.22;4973709;28;20516;-73
2022/10/30 09:50:06;;;;;;;10.07;4.27;;;;;;;18.11;88.13;101315.44;4973998;28;20992;-72
2022/10/30 09:52:40;;;;;;;7.23;3.37;;;;;;;18.18;89.12;101317.63;4971709;28;20457;-71
2022/10/30 09:55:29;;;;;;;9.30;3.40;;;;;;;18.37;88.51;101328.13;4974452;28;20477;-70
2022/10/30 09:58:04;;;;;;;8.80;3.90;;;;;;;18.47;87.96;101327.72;4973927;28;20466;-70
2022/10/30 10:00:36;;;;;;;7.67;3.80;;;;;;;18.55;86.78;101332.34;4975010;28;20565;-70
2022/10/30 10:03:21;;;;;;;6.03;2.87;;;;;;;18.67;85.85;101332.38;4971614;28;20494;-71
2022/10/30 10:05:51;;;;;;;12.00;3.93;;;;;;;18.67;87.37;101321.38;4971634;28;20454;-70
2022/10/30 10:08:22;;;;;;;7.60;3.70;;;;;;;18.88;86.03;101326.06;4974022;28;20466;-70
2022/10/30 10:10:52;;;;;;;9.53;4.20;;;;;;;18.98;85.78;101319.34;4972447;28;20548;-71
2022/10/30 10:13:29;;;;;;;7.40;3.37;;;;;;;19.16;84.40;101326.25;4974586;28;20941;-71
2022/10/30 10:16:03;;;;;;;8.37;3.50;;;;;;;19.30;83.29;101323.16;4974644;28;20456;-71
2022/10/30 10:18:35;;;;;;;6.40;3.13;;;;;;;19.40;81.19;101323.53;4974400;28;20516;-71
2022/10/30 10:21:09;;;;;;;6.17;2.70;;;;;;;19.39;79.22;101321.13;4974607;28;20446;-70
2022/10/30 10:23:43;;;;;;;7.30;3.33;;;;;;;19.52;78.44;101335.66;4974493;28;20461;-71
2022/10/30 10:26:21;;;;;;;10.10;4.07;;;;;;;19.65;79.22;101329.84;4974555;28;20964;-71
2022/10/30 10:28:58;;;;;;;7.63;3.07;;;;;;;19.87;78.52;101331.31;4974177;28;20891;-71
2022/10/30 10:31:36;;;;;;;11.37;4.60;;;;;;;20.00;75.50;101323.84;4974822;28;20437;-71
2022/10/30 10:34:20;;;;;;;10.43;2.80;;;;;;;20.14;76.42;101318.78;4974418;28;20844;-70
2022/10/30 10:36:56;;;;;;;7.73;3.00;;;;;;;20.31;75.92;101314.94;4974441;28;20529;-70
2022/10/30 10:39:41;;;;;;;8.67;3.40;;;;;;;20.27;74.66;101316.00;4974419;28;20836;-69
2022/10/30 10:42:19;;;;;;;11.10;2.80;;;;;;;20.42;73.38;101316.06;4974396;28;20446;-71
2022/10/30 10:45:12;;;;;;;11.70;3.03;;;;;;;20.63;73.81;101320.59;4974420;28;20536;-71
2022/10/30 10:48:10;;;;;;;6.83;2.93;;;;;;;20.81;72.24;101319.13;4974480;28;20453;-71
2022/10/30 10:50:42;;;;;;;17.43;4.00;;;;;;;20.87;70.73;101312.19;4973983;28;21013;-70
2022/10/30 10:53:17;;;;;;;10.63;3.70;;;;;;;21.02;70.07;101307.06;4976277;28;20434;-71
2022/10/30 10:55:49;;;;;;;6.70;2.70;;;;;;;20.93;70.91;101307.22;4977999;28;21014;-70
2022/10/30 10:58:25;;;;;;;6.00;2.50;;;;;;;21.10;69.83;101317.09;4978475;28;20454;-70
2022/10/30 11:00:53;;;;;;;9.43;2.93;;;;;;;21.44;67.42;101303.81;4978115;28;20476;-71
2022/10/30 11:03:25;;;;;;;6.17;2.77;;;;;;;22.08;65.79;101303.28;4978178;28;20449;-71
2022/10/30 11:05:54;;;;;;;12.17;2.70;;;;;;;23.06;63.69;101304.81;4978208;28;20449;-71
2022/10/30 11:08:26;;;;;;;7.20;2.73;;;;;;;24.14;60.22;101304.50;4978841;28;20541;-71
2022/10/30 11:10:57;;;;;;;5.40;2.70;;;;;;;25.10;55.53;101302.03;4978107;28;20434;-71
2022/10/30 11:13:27;;;;;;;7.53;2.90;;;;;;;25.63;53.03;101307.19;4977774;28;21005;-71
2022/10/30 11:16:01;;;;;;;6.93;2.33;;;;;;;26.20;51.42;101313.06;4977507;28;20485;-71
2022/10/30 11:18:29;;;;;;;5.97;2.57;;;;;;;25.89;51.01;101309.75;4977852;28;20463;-71
2022/10/30 11:21:00;;;;;;;9.13;2.40;;;;;;;26.52;49.23;101306.84;4977509;28;20829;-72